Time;durP1;ratioP1;P1;durP2;ratioP2;P2;SDS_P1;SDS_P2;PMS_P1;PMS_P2;Temp;Humidity;BMP_temperature;BMP_pressure;BME280_temperature;BME280_humidity;BME280_pressure;Samples;Min_cycle;Max_cycle;Signal;HPM_P1;HPM_P2
2022/12/28 00:01:24;;;;;;;11.43;10.73;;;;;;;;;;5016992;28;20128;-66
2022/12/28 00:03:50;;;;;;;10.70;9.85;;;;;;;;;;5014759;28;20503;-66
2022/12/28 00:06:17;;;;;;;10.73;9.98;;;;;;;;;;5018318;28;20064;-66
2022/12/28 00:08:43;;;;;;;10.95;10.25;;;;;;;;;;5015445;28;20478;-66
2022/12/28 00:11:14;;;;;;;10.98;10.18;;;;;;;;;;5015456;28;20069;-66
2022/12/28 00:13:39;;;;;;;10.60;9.98;;;;;;;;;;5014536;28;20380;-66
2022/12/28 00:16:08;;;;;;;10.82;9.95;;;;;;;;;;5015230;28;20049;-66
2022/12/28 00:18:34;;;;;;;10.60;9.90;;;;;;;;;;5013677;28;20069;-66
2022/12/28 00:21:00;;;;;;;10.68;9.93;;;;;;;;;;5019699;28;20127;-66
2022/12/28 00:23:26;;;;;;;10.32;9.65;;;;;;;;;;5016504;28;20490;-66
2022/12/28 00:25:52;;;;;;;11.07;10.30;;;;;;;;;;5010518;28;20037;-66
2022/12/28 00:28:18;;;;;;;10.25;9.65;;;;;;;;;;5013541;28;20048;-66
2022/12/28 00:30:43;;;;;;;10.93;10.13;;;;;;;;;;5018942;28;20026;-65
2022/12/28 00:33:09;;;;;;;10.00;9.40;;;;;;;;;;5018215;28;20516;-66
2022/12/28 00:35:34;;;;;;;9.95;9.35;;;;;;;;;;5015175;28;20045;-68
2022/12/28 00:37:59;;;;;;;11.65;10.95;;;;;;;;;;5014239;28;20038;-66
2022/12/28 00:40:25;;;;;;;10.43;9.73;;;;;;;;;;5012417;28;20084;-66
2022/12/28 00:42:50;;;;;;;10.10;9.50;;;;;;;;;;5013930;28;20120;-66
2022/12/28 00:45:16;;;;;;;9.95;9.35;;;;;;;;;;5014153;28;20041;-66
2022/12/28 00:47:41;;;;;;;11.10;10.23;;;;;;;;;;5014840;28;20044;-66
2022/12/28 00:50:07;;;;;;;10.20;9.60;;;;;;;;;;5015662;28;20037;-66
2022/12/28 00:52:32;;;;;;;10.65;9.95;;;;;;;;;;5012774;28;20440;-66
2022/12/28 00:54:58;;;;;;;10.32;9.70;;;;;;;;;;5015145;28;20037;-66
2022/12/28 00:57:23;;;;;;;11.57;10.77;;;;;;;;;;5015954;28;20038;-66
2022/12/28 00:59:48;;;;;;;11.32;10.48;;;;;;;;;;5012330;28;20048;-66
2022/12/28 01:02:14;;;;;;;11.73;11.02;;;;;;;;;;5014822;28;20137;-66
2022/12/28 01:04:39;;;;;;;10.43;9.82;;;;;;;;;;5019542;28;20046;-66
2022/12/28 01:07:04;;;;;;;10.85;10.05;;;;;;;;;;5017665;28;20069;-66
2022/12/28 01:09:30;;;;;;;11.23;10.52;;;;;;;;;;5013723;28;20040;-66
2022/12/28 01:11:55;;;;;;;10.68;9.98;;;;;;;;;;5014969;28;20033;-66
2022/12/28 01:14:20;;;;;;;12.23;11.40;;;;;;;;;;5014701;28;20041;-66
2022/12/28 01:16:46;;;;;;;9.88;9.27;;;;;;;;;;5017665;28;20044;-66
2022/12/28 01:19:19;;;;;;;11.38;10.68;;;;;;;;;;5011358;28;20484;-66
2022/12/28 01:21:48;;;;;;;11.10;10.40;;;;;;;;;;5015221;28;20494;-66
2022/12/28 01:24:13;;;;;;;11.70;11.00;;;;;;;;;;5012288;28;20042;-66
2022/12/28 01:26:39;;;;;;;10.60;9.93;;;;;;;;;;5017221;28;20030;-66
2022/12/28 01:29:04;;;;;;;11.40;10.60;;;;;;;;;;5012911;28;20040;-66
2022/12/28 01:31:30;;;;;;;10.77;10.07;;;;;;;;;;5012985;28;20037;-65
2022/12/28 01:33:55;;;;;;;12.02;11.23;;;;;;;;;;5014033;28;20034;-66
2022/12/28 01:36:23;;;;;;;10.43;9.73;;;;;;;;;;5015613;28;20630;-66
2022/12/28 01:38:56;;;;;;;12.68;11.88;;;;;;;;;;5021501;28;20080;-66
2022/12/28 01:41:23;;;;;;;11.80;11.00;;;;;;;;;;5012725;28;20471;-65
2022/12/28 01:43:51;;;;;;;11.57;10.88;;;;;;;;;;5014738;28;20038;-61
2022/12/28 01:46:50;;;;;;;11.25;10.55;;;;;;;;;;5014114;28;20037;-66
2022/12/28 01:49:22;;;;;;;11.73;10.98;;;;;;;;;;5014190;28;20029;-66
2022/12/28 01:51:53;;;;;;;11.05;10.35;;;;;;;;;;5013560;28;20485;-60
2022/12/28 01:54:19;;;;;;;;;;;;;;;;;;5016019;28;20042;-60
2022/12/28 01:56:46;;;;;;;11.05;10.35;;;;;;;;;;5018798;28;19913;-60
2022/12/28 01:59:11;;;;;;;12.13;11.23;;;;;;;;;;5012674;28;20037;-61
2022/12/28 02:01:37;;;;;;;11.02;10.32;;;;;;;;;;5013447;28;20034;-60
2022/12/28 02:04:03;;;;;;;10.73;10.02;;;;;;;;;;5013559;28;20112;-61
2022/12/28 02:06:29;;;;;;;11.05;10.25;;;;;;;;;;5014630;28;20025;-67
2022/12/28 02:09:08;;;;;;;10.43;9.75;;;;;;;;;;5012704;28;20025;-66
2022/12/28 02:11:34;;;;;;;11.43;10.65;;;;;;;;;;5015497;28;20034;-60
2022/12/28 02:14:01;;;;;;;10.40;9.70;;;;;;;;;;5014046;28;20399;-61
2022/12/28 02:16:27;;;;;;;10.82;10.13;;;;;;;;;;5012873;28;20044;-65
2022/12/28 02:18:53;;;;;;;9.70;9.10;;;;;;;;;;5013566;28;20030;-65
2022/12/28 02:21:24;;;;;;;12.90;9.95;;;;;;;;;;5013291;28;20459;-65
2022/12/28 02:24:04;;;;;;;9.90;9.25;;;;;;;;;;5015322;28;20038;-60
2022/12/28 02:27:07;;;;;;;10.13;9.43;;;;;;;;;;5012803;28;20120;-66
2022/12/28 02:29:56;;;;;;;11.82;10.93;;;;;;;;;;5012844;28;20048;-66
2022/12/28 02:32:54;;;;;;;12.98;12.07;;;;;;;;;;5013331;28;20041;-66
2022/12/28 02:35:39;;;;;;;10.43;9.75;;;;;;;;;;5017473;28;20033;-60
2022/12/28 02:38:13;;;;;;;11.05;10.30;;;;;;;;;;5010694;28;20043;-60
2022/12/28 02:41:09;;;;;;;11.27;10.55;;;;;;;;;;4997682;28;20061;-61
2022/12/28 02:43:35;;;;;;;11.23;10.52;;;;;;;;;;5011349;28;20466;-61
2022/12/28 02:52:07;;;;;;;11.43;10.63;;;;;;;;;;5013142;28;20037;-66
2022/12/28 02:57:52;;;;;;;20.80;11.02;;;;;;;;;;5010682;28;20037;-65
2022/12/28 03:00:20;;;;;;;11.52;10.82;;;;;;;;;;5012610;28;20038;-65
2022/12/28 03:02:59;;;;;;;11.98;11.23;;;;;;;;;;5013818;28;20038;-65
2022/12/28 03:08:39;;;;;;;11.45;10.65;;;;;;;;;;5013729;28;20037;-66
2022/12/28 03:11:12;;;;;;;;;;;;;;;;;;5015617;28;20048;-66
2022/12/28 03:13:45;;;;;;;10.55;9.85;;;;;;;;;;5013241;28;19917;-61
2022/12/28 03:16:18;;;;;;;11.80;11.00;;;;;;;;;;5012243;28;20041;-61
2022/12/28 03:32:49;;;;;;;12.30;11.50;;;;;;;;;;5013216;28;20038;-61
2022/12/28 03:35:18;;;;;;;12.20;11.45;;;;;;;;;;5011892;28;20041;-66
2022/12/28 03:38:01;;;;;;;11.85;11.05;;;;;;;;;;5011756;28;20049;-66
2022/12/28 03:40:47;;;;;;;11.75;10.95;;;;;;;;;;5012364;28;20466;-66
2022/12/28 03:43:41;;;;;;;12.48;11.68;;;;;;;;;;5013129;28;20044;-66
2022/12/28 03:46:33;;;;;;;11.98;11.20;;;;;;;;;;5014457;28;20037;-62
2022/12/28 03:48:59;;;;;;;11.20;10.43;;;;;;;;;;5019495;28;20478;-62
2022/12/28 03:51:26;;;;;;;12.13;11.40;;;;;;;;;;5010433;28;20038;-62
2022/12/28 03:53:52;;;;;;;11.45;10.75;;;;;;;;;;5015932;28;20079;-62
2022/12/28 03:56:20;;;;;;;11.95;11.15;;;;;;;;;;5010968;28;20033;-62
2022/12/28 03:58:46;;;;;;;12.52;11.65;;;;;;;;;;5010656;28;20030;-62
2022/12/28 04:01:12;;;;;;;14.70;13.80;;;;;;;;;;5014015;28;20073;-62
2022/12/28 04:03:38;;;;;;;13.15;12.25;;;;;;;;;;5016140;28;20029;-67
2022/12/28 04:06:04;;;;;;;12.38;11.68;;;;;;;;;;5015399;28;20124;-67
2022/12/28 04:08:31;;;;;;;11.77;11.07;;;;;;;;;;5012634;28;20105;-67
2022/12/28 04:10:58;;;;;;;11.88;11.18;;;;;;;;;;5013288;28;20069;-67
2022/12/28 04:13:23;;;;;;;13.68;12.77;;;;;;;;;;5016367;28;20057;-62
2022/12/28 04:16:04;;;;;;;11.65;10.95;;;;;;;;;;5016066;28;20072;-62
2022/12/28 04:18:31;;;;;;;13.38;12.57;;;;;;;;;;5014471;28;20045;-62
2022/12/28 04:20:57;;;;;;;12.15;11.45;;;;;;;;;;5017586;28;20052;-62
2022/12/28 04:23:23;;;;;;;12.80;12.00;;;;;;;;;;5016424;28;20033;-62
2022/12/28 04:26:03;;;;;;;12.65;11.82;;;;;;;;;;5014165;28;20052;-62
2022/12/28 04:28:30;;;;;;;12.65;11.80;;;;;;;;;;5012220;28;20041;-62
2022/12/28 04:30:56;;;;;;;13.05;12.18;;;;;;;;;;5015476;28;20046;-67
2022/12/28 04:33:22;;;;;;;13.25;12.38;;;;;;;;;;5015351;28;20057;-67
2022/12/28 04:35:48;;;;;;;12.55;11.80;;;;;;;;;;5012220;28;20370;-67
2022/12/28 04:38:13;;;;;;;13.73;12.82;;;;;;;;;;5013468;28;20484;-67
2022/12/28 04:40:39;;;;;;;12.25;11.45;;;;;;;;;;5015786;28;20728;-67
2022/12/28 04:43:04;;;;;;;12.90;12.00;;;;;;;;;;5017127;28;20129;-67
2022/12/28 04:45:29;;;;;;;12.52;11.70;;;;;;;;;;5015584;28;22712;-67
2022/12/28 04:47:56;;;;;;;11.40;10.70;;;;;;;;;;5014318;28;20033;-67
2022/12/28 04:50:21;;;;;;;13.15;12.20;;;;;;;;;;5016622;28;20674;-62
2022/12/28 04:52:46;;;;;;;12.68;11.75;;;;;;;;;;5014695;28;20034;-67
2022/12/28 04:55:12;;;;;;;12.05;11.35;;;;;;;;;;5014773;28;20128;-67
2022/12/28 04:57:37;;;;;;;12.05;11.35;;;;;;;;;;5014181;28;20034;-67
2022/12/28 05:00:03;;;;;;;13.00;12.10;;;;;;;;;;5012732;28;20029;-67
2022/12/28 05:02:30;;;;;;;11.98;11.18;;;;;;;;;;5016666;28;20546;-67
2022/12/28 05:04:55;;;;;;;10.95;10.25;;;;;;;;;;5015583;28;20104;-62
2022/12/28 05:07:21;;;;;;;13.05;12.00;;;;;;;;;;5012659;28;20037;-67
2022/12/28 05:09:46;;;;;;;12.38;11.57;;;;;;;;;;5001294;28;20125;-62
2022/12/28 05:12:11;;;;;;;12.10;11.20;;;;;;;;;;5014454;28;20026;-62
2022/12/28 05:14:37;;;;;;;13.57;12.68;;;;;;;;;;5015927;28;20079;-67
2022/12/28 05:17:02;;;;;;;12.70;11.90;;;;;;;;;;5015887;28;20117;-67
2022/12/28 05:19:28;;;;;;;11.10;10.40;;;;;;;;;;5013454;28;20041;-67
2022/12/28 05:21:53;;;;;;;11.65;10.95;;;;;;;;;;5014422;28;20553;-67
2022/12/28 05:24:19;;;;;;;13.23;12.27;;;;;;;;;;5014596;28;20093;-67
2022/12/28 05:26:44;;;;;;;11.43;10.73;;;;;;;;;;5015826;28;20045;-62
2022/12/28 05:29:10;;;;;;;11.73;11.02;;;;;;;;;;5013649;28;20308;-62
2022/12/28 05:31:35;;;;;;;13.00;12.20;;;;;;;;;;5013362;28;20034;-62
2022/12/28 05:34:01;;;;;;;12.02;11.23;;;;;;;;;;5015879;28;20048;-62
2022/12/28 05:36:26;;;;;;;11.98;11.27;;;;;;;;;;5014053;28;20038;-62
2022/12/28 05:38:52;;;;;;;12.45;11.65;;;;;;;;;;5012077;28;20133;-62
2022/12/28 05:41:21;;;;;;;10.82;10.13;;;;;;;;;;5011517;28;20042;-62
2022/12/28 05:43:47;;;;;;;11.63;10.93;;;;;;;;;;5015944;28;20064;-62
2022/12/28 05:46:17;;;;;;;11.95;11.15;;;;;;;;;;5013316;28;20029;-62
2022/12/28 05:48:44;;;;;;;11.10;10.40;;;;;;;;;;5012018;28;20452;-62
2022/12/28 05:51:11;;;;;;;11.60;10.90;;;;;;;;;;5015518;28;20034;-67
2022/12/28 05:53:37;;;;;;;12.48;11.68;;;;;;;;;;5015880;28;20154;-63
2022/12/28 05:56:04;;;;;;;11.50;10.80;;;;;;;;;;5015967;28;20546;-62
2022/12/28 05:58:29;;;;;;;10.80;10.10;;;;;;;;;;5012246;28;20053;-62
2022/12/28 06:01:22;;;;;;;13.02;12.13;;;;;;;;;;5013693;28;20038;-63
2022/12/28 06:03:52;;;;;;;11.30;10.60;;;;;;;;;;5013319;28;20046;-67
2022/12/28 06:06:19;;;;;;;10.93;10.25;;;;;;;;;;5014982;28;20033;-62
2022/12/28 06:08:46;;;;;;;10.30;9.70;;;;;;;;;;5013585;28;20526;-68
2022/12/28 06:11:15;;;;;;;10.18;9.57;;;;;;;;;;5015881;28;20480;-67
2022/12/28 06:13:40;;;;;;;10.38;9.75;;;;;;;;;;5014758;28;20043;-67
2022/12/28 06:16:06;;;;;;;10.40;9.80;;;;;;;;;;5014564;28;20624;-62
2022/12/28 06:18:32;;;;;;;10.90;10.20;;;;;;;;;;5004673;28;20580;-67
2022/12/28 06:21:06;;;;;;;12.48;11.65;;;;;;;;;;5015094;28;20551;-62
2022/12/28 06:23:32;;;;;;;11.75;11.02;;;;;;;;;;5012429;28;20286;-62
2022/12/28 06:26:03;;;;;;;10.48;9.77;;;;;;;;;;5013241;28;20037;-67
2022/12/28 06:28:28;;;;;;;10.63;9.93;;;;;;;;;;5012356;28;20600;-63
2022/12/28 06:31:09;;;;;;;10.82;10.20;;;;;;;;;;5014188;28;20507;-63
2022/12/28 06:33:34;;;;;;;10.90;10.20;;;;;;;;;;5012649;28;20036;-62
2022/12/28 06:36:00;;;;;;;11.98;11.18;;;;;;;;;;5015076;28;20037;-63
2022/12/28 06:38:28;;;;;;;12.45;11.65;;;;;;;;;;5011490;28;20041;-65
2022/12/28 06:40:53;;;;;;;10.77;10.07;;;;;;;;;;5017376;28;20503;-65
2022/12/28 06:43:19;;;;;;;11.18;10.38;;;;;;;;;;5015553;28;20128;-66
2022/12/28 06:45:55;;;;;;;12.00;11.13;;;;;;;;;;5014454;28;20033;-65
2022/12/28 06:48:20;;;;;;;10.95;10.25;;;;;;;;;;5013317;28;20038;-66
2022/12/28 06:50:59;;;;;;;11.10;10.40;;;;;;;;;;5014321;28;20125;-67
2022/12/28 06:53:27;;;;;;;11.65;10.95;;;;;;;;;;5010185;28;20049;-67
2022/12/28 06:55:57;;;;;;;11.10;10.40;;;;;;;;;;5010400;28;20037;-66
2022/12/28 06:58:24;;;;;;;10.97;10.27;;;;;;;;;;4998104;28;20113;-67
2022/12/28 07:00:50;;;;;;;11.10;10.30;;;;;;;;;;5011957;28;20533;-67
2022/12/28 07:03:15;;;;;;;11.10;10.40;;;;;;;;;;5014476;28;20075;-67
2022/12/28 07:05:41;;;;;;;10.63;10.00;;;;;;;;;;5011665;28;20127;-66
2022/12/28 07:08:06;;;;;;;10.85;10.15;;;;;;;;;;5014986;28;20026;-66
2022/12/28 07:10:33;;;;;;;11.30;10.60;;;;;;;;;;5011656;28;20701;-69
2022/12/28 07:12:58;;;;;;;10.32;9.73;;;;;;;;;;5013006;28;20057;-66
2022/12/28 07:15:24;;;;;;;11.70;10.90;;;;;;;;;;5012964;28;20033;-66
2022/12/28 07:17:49;;;;;;;12.02;11.32;;;;;;;;;;5011369;28;20060;-67
2022/12/28 07:20:15;;;;;;;10.40;9.80;;;;;;;;;;5012638;28;20716;-66
2022/12/28 07:22:40;;;;;;;12.00;11.23;;;;;;;;;;5011500;28;20054;-69
2022/12/28 07:25:06;;;;;;;11.70;10.90;;;;;;;;;;5014028;28;20048;-66
2022/12/28 07:27:33;;;;;;;11.32;10.63;;;;;;;;;;5012028;28;20157;-67
2022/12/28 07:29:58;;;;;;;10.32;9.73;;;;;;;;;;5015065;28;20030;-57
2022/12/28 07:32:24;;;;;;;10.43;9.82;;;;;;;;;;5011470;28;20480;-58
2022/12/28 07:34:49;;;;;;;11.23;10.52;;;;;;;;;;5016002;28;20565;-59
2022/12/28 07:37:14;;;;;;;11.07;10.38;;;;;;;;;;5015142;28;20033;-59
2022/12/28 07:39:40;;;;;;;11.27;10.57;;;;;;;;;;5014411;28;20045;-57
2022/12/28 07:42:09;;;;;;;11.95;11.15;;;;;;;;;;5016955;28;20038;-59
2022/12/28 07:44:35;;;;;;;11.07;10.38;;;;;;;;;;5015979;28;20643;-60
2022/12/28 07:47:00;;;;;;;10.05;9.45;;;;;;;;;;5016988;28;20034;-60
2022/12/28 07:49:26;;;;;;;11.95;11.15;;;;;;;;;;5013410;28;20492;-60
2022/12/28 07:51:51;;;;;;;11.27;10.57;;;;;;;;;;5017492;28;20459;-59
2022/12/28 07:54:16;;;;;;;11.45;10.55;;;;;;;;;;5016008;28;20033;-59
2022/12/28 07:56:42;;;;;;;11.02;10.32;;;;;;;;;;5018194;28;20144;-58
2022/12/28 07:59:12;;;;;;;10.30;9.70;;;;;;;;;;5019816;28;20376;-59
2022/12/28 08:01:38;;;;;;;10.88;10.23;;;;;;;;;;5019353;28;20429;-59
2022/12/28 08:04:06;;;;;;;11.75;11.02;;;;;;;;;;5017383;28;20116;-58
2022/12/28 08:06:34;;;;;;;12.32;11.43;;;;;;;;;;5016043;28;20045;-58
2022/12/28 08:09:00;;;;;;;10.90;10.20;;;;;;;;;;5014894;28;20044;-58
2022/12/28 08:11:31;;;;;;;11.02;10.35;;;;;;;;;;5014885;28;20041;-59
2022/12/28 08:13:57;;;;;;;10.33;9.73;;;;;;;;;;5015402;28;20363;-59
2022/12/28 08:16:25;;;;;;;11.20;10.50;;;;;;;;;;5016973;28;20038;-58
2022/12/28 08:18:51;;;;;;;12.05;11.35;;;;;;;;;;5013901;28;20464;-59
2022/12/28 08:21:38;;;;;;;10.85;10.15;;;;;;;;;;5015391;28;20049;-59
2022/12/28 08:24:05;;;;;;;12.10;11.30;;;;;;;;;;5014223;28;20038;-59
2022/12/28 08:26:33;;;;;;;10.98;10.27;;;;;;;;;;5015681;28;20026;-58
2022/12/28 08:29:03;;;;;;;11.85;11.05;;;;;;;;;;5014159;28;20376;-59
2022/12/28 08:31:32;;;;;;;11.68;10.88;;;;;;;;;;5015266;28;20170;-59
2022/12/28 08:34:00;;;;;;;10.80;10.10;;;;;;;;;;5014896;28;20116;-59
2022/12/28 08:36:26;;;;;;;11.70;10.80;;;;;;;;;;5022574;28;20475;-59
2022/12/28 08:38:51;;;;;;;11.15;10.45;;;;;;;;;;5016970;28;20047;-59
2022/12/28 08:41:19;;;;;;;10.70;10.00;;;;;;;;;;5016740;28;20072;-58
2022/12/28 08:43:45;;;;;;;10.82;10.15;;;;;;;;;;5014556;28;20033;-58
2022/12/28 08:46:22;;;;;;;11.75;11.05;;;;;;;;;;5014899;28;20044;-59
2022/12/28 08:48:48;;;;;;;10.90;10.20;;;;;;;;;;5016297;28;20140;-58
2022/12/28 08:51:20;;;;;;;11.57;10.88;;;;;;;;;;5014430;28;20034;-58
2022/12/28 08:53:47;;;;;;;11.10;10.40;;;;;;;;;;5012976;28;20049;-58
2022/12/28 08:56:16;;;;;;;10.90;10.20;;;;;;;;;;5015126;28;20048;-58
2022/12/28 08:58:43;;;;;;;11.45;10.73;;;;;;;;;;5013839;28;20107;-58
2022/12/28 09:01:14;;;;;;;12.23;11.38;;;;;;;;;;5015245;28;20414;-58
2022/12/28 09:03:44;;;;;;;11.27;10.52;;;;;;;;;;5019322;28;20029;-58
2022/12/28 09:06:12;;;;;;;11.38;10.57;;;;;;;;;;5013901;28;20041;-58
2022/12/28 09:08:39;;;;;;;11.18;10.45;;;;;;;;;;5013946;28;20029;-58
2022/12/28 09:11:07;;;;;;;12.13;11.27;;;;;;;;;;5017344;28;20038;-58
2022/12/28 09:13:33;;;;;;;12.13;11.32;;;;;;;;;;5013449;28;20528;-58
2022/12/28 09:16:04;;;;;;;11.00;10.30;;;;;;;;;;5015226;28;20045;-58
2022/12/28 09:18:29;;;;;;;;;;;;;;;;;;5012418;28;20041;-58
2022/12/28 09:20:55;;;;;;;11.05;10.35;;;;;;;;;;5015279;28;19929;-58
2022/12/28 09:23:21;;;;;;;10.27;9.68;;;;;;;;;;5013426;28;20098;-59
2022/12/28 09:25:46;;;;;;;10.15;9.45;;;;;;;;;;5013439;28;20042;-58
2022/12/28 09:28:12;;;;;;;10.32;9.73;;;;;;;;;;5012906;28;20045;-59
2022/12/28 09:30:37;;;;;;;10.82;10.02;;;;;;;;;;5014749;28;20121;-59
2022/12/28 09:35:46;;;;;;;10.45;9.80;;;;;;;;;;5024409;28;20042;-58
2022/12/28 09:38:12;;;;;;;11.07;10.38;;;;;;;;;;5011180;28;20048;-59
2022/12/28 09:40:37;;;;;;;9.90;9.30;;;;;;;;;;5013909;28;20041;-58
2022/12/28 09:43:10;;;;;;;9.90;9.30;;;;;;;;;;5014309;28;20105;-58
2022/12/28 09:45:36;;;;;;;10.48;9.77;;;;;;;;;;5011068;28;20040;-58
2022/12/28 09:48:13;;;;;;;10.15;9.43;;;;;;;;;;5014453;28;20422;-58
2022/12/28 09:50:38;;;;;;;11.50;10.80;;;;;;;;;;5011076;28;20115;-58
2022/12/28 09:53:03;;;;;;;10.45;9.75;;;;;;;;;;5012425;28;20125;-58
2022/12/28 09:55:31;;;;;;;9.85;9.25;;;;;;;;;;5012071;28;20467;-58
2022/12/28 09:57:58;;;;;;;10.55;9.93;;;;;;;;;;5013453;28;20041;-58
2022/12/28 10:00:29;;;;;;;9.55;8.95;;;;;;;;;;5012665;28;20026;-58
2022/12/28 10:03:01;;;;;;;11.40;10.68;;;;;;;;;;5014367;28;20067;-58
2022/12/28 10:05:28;;;;;;;11.90;11.00;;;;;;;;;;5015346;28;20108;-58
2022/12/28 10:07:56;;;;;;;10.68;10.00;;;;;;;;;;5014021;28;20029;-58
2022/12/28 10:10:22;;;;;;;11.23;10.48;;;;;;;;;;5011660;28;20447;-58
2022/12/28 10:12:49;;;;;;;9.88;9.27;;;;;;;;;;5020424;28;20064;-58
2022/12/28 10:15:16;;;;;;;9.85;9.25;;;;;;;;;;5013431;28;20041;-58
2022/12/28 10:17:42;;;;;;;10.18;9.48;;;;;;;;;;5013246;28;20037;-58
2022/12/28 10:20:15;;;;;;;10.10;9.50;;;;;;;;;;5013509;28;20025;-58
2022/12/28 10:22:42;;;;;;;11.07;10.38;;;;;;;;;;5015971;28;20563;-57
2022/12/28 10:25:16;;;;;;;10.60;10.00;;;;;;;;;;5013298;28;20037;-58
2022/12/28 10:27:42;;;;;;;12.18;11.38;;;;;;;;;;5012234;28;20041;-58
2022/12/28 10:30:25;;;;;;;11.20;10.50;;;;;;;;;;5015709;28;20052;-58
2022/12/28 10:32:50;;;;;;;11.90;11.20;;;;;;;;;;5013584;28;20376;-58
2022/12/28 10:35:48;;;;;;;11.10;10.40;;;;;;;;;;5020281;28;20037;-58
2022/12/28 10:38:22;;;;;;;12.02;11.32;;;;;;;;;;5014718;28;20520;-58
2022/12/28 10:40:57;;;;;;;10.90;10.20;;;;;;;;;;5014985;28;20430;-59
2022/12/28 10:43:28;;;;;;;10.68;10.05;;;;;;;;;;5013625;28;20041;-59
2022/12/28 10:45:54;;;;;;;10.48;9.77;;;;;;;;;;5015133;28;20030;-58
2022/12/28 10:48:37;;;;;;;11.25;10.55;;;;;;;;;;5011977;28;20041;-58
2022/12/28 10:51:06;;;;;;;10.90;10.25;;;;;;;;;;5014349;28;20092;-58
2022/12/28 10:53:50;;;;;;;11.25;10.55;;;;;;;;;;5012332;28;20060;-56
2022/12/28 10:56:27;;;;;;;12.00;11.20;;;;;;;;;;5013670;28;20498;-57
2022/12/28 10:59:14;;;;;;;11.38;10.68;;;;;;;;;;5010785;28;20042;-57
2022/12/28 11:01:41;;;;;;;11.65;10.95;;;;;;;;;;5011236;28;20655;-57
2022/12/28 11:04:16;;;;;;;11.30;10.60;;;;;;;;;;5012995;28;20531;-57
2022/12/28 11:07:22;;;;;;;11.77;11.07;;;;;;;;;;5010918;28;20041;-57
2022/12/28 11:09:47;;;;;;;11.30;10.60;;;;;;;;;;5012802;28;20084;-57
2022/12/28 11:12:23;;;;;;;11.98;11.15;;;;;;;;;;5011062;28;20058;-57
2022/12/28 11:14:51;;;;;;;11.45;10.75;;;;;;;;;;5011849;28;20159;-57
2022/12/28 11:17:28;;;;;;;10.88;10.18;;;;;;;;;;5011531;28;20474;-57
2022/12/28 11:19:56;;;;;;;11.93;11.23;;;;;;;;;;5010994;28;20050;-57
2022/12/28 11:22:25;;;;;;;11.23;10.52;;;;;;;;;;5013501;28;20026;-57
2022/12/28 11:24:50;;;;;;;11.57;10.88;;;;;;;;;;5011445;28;20038;-57
2022/12/28 11:27:18;;;;;;;12.35;11.55;;;;;;;;;;5010163;28;20029;-57
2022/12/28 11:29:46;;;;;;;11.73;11.02;;;;;;;;;;5009197;28;20033;-57
2022/12/28 11:32:19;;;;;;;11.40;10.70;;;;;;;;;;5016202;28;20034;-57
2022/12/28 11:34:45;;;;;;;12.32;11.52;;;;;;;;;;5012216;28;20112;-57
2022/12/28 11:37:14;;;;;;;11.50;10.70;;;;;;;;;;5014128;28;20121;-57
2022/12/28 11:39:47;;;;;;;10.63;10.00;;;;;;;;;;5010682;28;20429;-57
2022/12/28 11:42:31;;;;;;;11.70;11.00;;;;;;;;;;5011668;28;20053;-57
2022/12/28 11:44:57;;;;;;;11.10;10.40;;;;;;;;;;5020752;28;20124;-57
2022/12/28 11:47:31;;;;;;;11.20;10.50;;;;;;;;;;5011333;28;20040;-57
2022/12/28 11:50:37;;;;;;;10.82;10.13;;;;;;;;;;5012491;28;20095;-57
2022/12/28 11:53:18;;;;;;;11.75;11.05;;;;;;;;;;5012271;28;20064;-57
2022/12/28 11:56:07;;;;;;;11.30;10.60;;;;;;;;;;5009021;28;20055;-57
2022/12/28 11:58:39;;;;;;;10.98;10.27;;;;;;;;;;5009876;28;20107;-57
2022/12/28 12:01:08;;;;;;;11.32;10.63;;;;;;;;;;5010487;28;20044;-57
2022/12/28 12:03:55;;;;;;;11.60;10.90;;;;;;;;;;5011084;28;20034;-57
2022/12/28 12:06:40;;;;;;;11.65;10.95;;;;;;;;;;5009504;28;20033;-57
2022/12/28 12:09:21;;;;;;;11.45;10.75;;;;;;;;;;5007789;28;20390;-57
2022/12/28 12:11:55;;;;;;;10.93;10.23;;;;;;;;;;5008888;28;20045;-57
2022/12/28 12:14:30;;;;;;;11.07;10.38;;;;;;;;;;5011436;28;20433;-57
2022/12/28 12:17:03;;;;;;;12.30;11.23;;;;;;;;;;5010891;28;20099;-57
2022/12/28 12:19:34;;;;;;;10.95;10.25;;;;;;;;;;5010180;28;20037;-57
2022/12/28 12:22:05;;;;;;;11.57;10.75;;;;;;;;;;5014979;28;20033;-57
2022/12/28 12:24:36;;;;;;;;;;;;;;;;;;5016384;28;20033;-57
2022/12/28 12:27:12;;;;;;;11.73;10.88;;;;;;;;;;5017137;28;19913;-57
2022/12/28 12:29:45;;;;;;;10.75;10.05;;;;;;;;;;5015493;28;20809;-57
2022/12/28 12:32:18;;;;;;;11.98;11.27;;;;;;;;;;5015271;28;20791;-57
2022/12/28 12:34:48;;;;;;;11.70;10.93;;;;;;;;;;5010638;28;21425;-57
2022/12/28 12:37:38;;;;;;;11.02;10.32;;;;;;;;;;5013179;28;20048;-57
2022/12/28 12:40:25;;;;;;;11.43;10.73;;;;;;;;;;5014113;28;20033;-57
2022/12/28 12:43:34;;;;;;;10.90;10.20;;;;;;;;;;5012783;28;20558;-57
2022/12/28 12:46:31;;;;;;;12.25;11.55;;;;;;;;;;5005775;28;20041;-58
2022/12/28 12:49:04;;;;;;;11.23;10.52;;;;;;;;;;5011448;28;20037;-60
2022/12/28 12:51:39;;;;;;;11.25;10.55;;;;;;;;;;5011050;28;20061;-58
2022/12/28 12:54:44;;;;;;;11.50;10.80;;;;;;;;;;5010685;28;20049;-58
2022/12/28 12:57:19;;;;;;;11.18;10.48;;;;;;;;;;5012901;28;20489;-59
2022/12/28 13:00:21;;;;;;;12.18;11.48;;;;;;;;;;5009692;28;20067;-58
2022/12/28 13:03:15;;;;;;;12.82;12.05;;;;;;;;;;5000906;28;20567;-59
2022/12/28 13:05:48;;;;;;;11.73;10.93;;;;;;;;;;5013645;28;20095;-58
2022/12/28 13:08:24;;;;;;;11.52;10.82;;;;;;;;;;5012111;28;20092;-58
2022/12/28 13:10:51;;;;;;;11.25;10.48;;;;;;;;;;5019253;28;20034;-58
2022/12/28 13:13:23;;;;;;;11.68;10.98;;;;;;;;;;5015035;28;20050;-58
2022/12/28 13:15:49;;;;;;;11.43;10.73;;;;;;;;;;5013060;28;20041;-59
2022/12/28 13:18:17;;;;;;;12.32;11.63;;;;;;;;;;5016058;28;20042;-58
2022/12/28 13:20:59;;;;;;;13.00;12.20;;;;;;;;;;5013084;28;20117;-57
2022/12/28 13:23:27;;;;;;;12.43;11.63;;;;;;;;;;5015053;28;20036;-57
2022/12/28 13:25:56;;;;;;;12.25;11.52;;;;;;;;;;5014751;28;20038;-57
2022/12/28 13:28:34;;;;;;;14.07;13.18;;;;;;;;;;5012768;28;20017;-57
2022/12/28 13:31:13;;;;;;;11.35;10.65;;;;;;;;;;5015889;28;20503;-57
2022/12/28 13:33:39;;;;;;;11.05;10.40;;;;;;;;;;5015858;28;20353;-56
2022/12/28 13:36:16;;;;;;;12.63;11.90;;;;;;;;;;5016230;28;20040;-58
2022/12/28 13:38:41;;;;;;;12.10;11.40;;;;;;;;;;5013683;28;20026;-57
2022/12/28 13:41:18;;;;;;;12.80;12.00;;;;;;;;;;5015698;28;20095;-57
2022/12/28 13:44:17;;;;;;;11.60;10.90;;;;;;;;;;5011460;28;20029;-57
2022/12/28 13:46:54;;;;;;;13.02;12.23;;;;;;;;;;5011271;28;20403;-57
2022/12/28 13:49:20;;;;;;;11.45;10.75;;;;;;;;;;5010242;28;20030;-57
2022/12/28 13:51:46;;;;;;;12.13;11.43;;;;;;;;;;5011786;28;20046;-57
2022/12/28 13:54:12;;;;;;;11.60;10.80;;;;;;;;;;5016232;28;20033;-57
2022/12/28 13:56:40;;;;;;;12.18;11.48;;;;;;;;;;5013029;28;20066;-58
2022/12/28 13:59:11;;;;;;;12.10;11.30;;;;;;;;;;5012475;28;20534;-57
2022/12/28 14:01:41;;;;;;;11.70;11.00;;;;;;;;;;5013540;28;20052;-58
2022/12/28 14:04:11;;;;;;;11.87;11.17;;;;;;;;;;5017242;28;20025;-57
2022/12/28 14:06:38;;;;;;;12.00;11.17;;;;;;;;;;5013720;28;20033;-58
2022/12/28 14:09:03;;;;;;;12.10;11.40;;;;;;;;;;5015622;28;20037;-57
2022/12/28 14:11:29;;;;;;;10.98;10.27;;;;;;;;;;5014764;28;20406;-57
2022/12/28 14:13:55;;;;;;;11.90;11.20;;;;;;;;;;5013492;28;20423;-57
2022/12/28 14:16:21;;;;;;;13.38;12.48;;;;;;;;;;5009630;28;20126;-57
2022/12/28 14:18:47;;;;;;;12.80;11.73;;;;;;;;;;5013371;28;20048;-57
2022/12/28 14:21:13;;;;;;;13.73;12.93;;;;;;;;;;5013324;28;20033;-57
2022/12/28 14:23:39;;;;;;;13.68;12.88;;;;;;;;;;5013127;28;20056;-58
2022/12/28 14:26:08;;;;;;;15.65;14.50;;;;;;;;;;5012844;28;20136;-58
2022/12/28 14:28:42;;;;;;;12.52;11.70;;;;;;;;;;5011939;28;20029;-57
2022/12/28 14:31:10;;;;;;;12.23;11.43;;;;;;;;;;5013896;28;20037;-54
2022/12/28 14:33:48;;;;;;;12.68;11.88;;;;;;;;;;5011076;28;20486;-56
2022/12/28 14:36:20;;;;;;;13.30;12.50;;;;;;;;;;5013351;28;20045;-54
2022/12/28 14:38:48;;;;;;;13.25;12.45;;;;;;;;;;5011428;28;20053;-55
2022/12/28 14:41:21;;;;;;;12.02;11.32;;;;;;;;;;5012903;28;20063;-56
2022/12/28 14:43:55;;;;;;;11.95;11.25;;;;;;;;;;5011619;28;20133;-56
2022/12/28 14:46:35;;;;;;;12.70;11.90;;;;;;;;;;5013567;28;20044;-55
2022/12/28 14:49:30;;;;;;;12.40;11.70;;;;;;;;;;5012363;28;20083;-57
2022/12/28 14:52:16;;;;;;;11.88;11.18;;;;;;;;;;5015227;28;20098;-58
2022/12/28 14:54:45;;;;;;;12.50;11.70;;;;;;;;;;5012509;28;20715;-57
2022/12/28 14:57:41;;;;;;;12.50;11.70;;;;;;;;;;5010376;28;20045;-58
2022/12/28 15:00:19;;;;;;;12.00;11.30;;;;;;;;;;5013808;28;20547;-58
2022/12/28 15:02:45;;;;;;;12.88;12.07;;;;;;;;;;5010800;28;20026;-58
2022/12/28 15:05:32;;;;;;;12.52;11.82;;;;;;;;;;5015401;28;20425;-55
2022/12/28 15:07:58;;;;;;;11.93;11.23;;;;;;;;;;5012063;28;20528;-54
2022/12/28 15:10:23;;;;;;;12.10;11.40;;;;;;;;;;5013389;28;20048;-55